createdAt,value
2023-06-11T00:00:11.055Z,0.00
2023-06-11T00:00:41.982Z,0.00
2023-06-11T00:01:12.917Z,0.00
2023-06-11T00:01:43.838Z,0.00
2023-06-11T00:02:14.747Z,0.00
2023-06-11T00:02:45.859Z,0.00
2023-06-11T00:03:16.443Z,0.00
2023-06-11T00:03:47.132Z,0.00
2023-06-11T00:04:17.647Z,0.00
2023-06-11T00:04:48.168Z,0.00
2023-06-11T00:05:19.143Z,0.00
2023-06-11T00:05:50.035Z,0.00
2023-06-11T00:06:20.838Z,0.00
2023-06-11T00:06:51.749Z,0.00
2023-06-11T00:07:22.666Z,0.00
2023-06-11T00:07:53.617Z,0.00
2023-06-11T00:08:24.502Z,0.00
2023-06-11T00:08:55.477Z,0.00
2023-06-11T00:09:26.415Z,0.00
2023-06-11T00:09:57.327Z,0.00
2023-06-11T00:10:28.246Z,0.00
2023-06-11T00:10:59.179Z,0.00
2023-06-11T00:11:30.108Z,0.00
2023-06-11T00:12:01.005Z,0.00
2023-06-11T00:12:31.930Z,0.00
2023-06-11T00:13:02.865Z,0.00
2023-06-11T00:13:33.798Z,0.00
2023-06-11T00:14:04.734Z,0.00
2023-06-11T00:14:35.660Z,0.00
2023-06-11T00:15:06.685Z,0.00
2023-06-11T00:15:37.135Z,0.00
2023-06-11T00:16:08.062Z,0.00
2023-06-11T00:16:38.968Z,0.00
2023-06-11T00:17:09.472Z,0.00
2023-06-11T00:17:40.441Z,0.00
2023-06-11T00:18:10.911Z,0.00
2023-06-11T00:18:41.871Z,0.00
2023-06-11T00:19:12.803Z,0.00
2023-06-11T00:19:43.733Z,0.00
2023-06-11T00:20:14.688Z,0.00
2023-06-11T00:20:45.596Z,0.00
2023-06-11T00:21:16.498Z,0.00
2023-06-11T00:21:47.431Z,0.00
2023-06-11T00:22:18.367Z,0.00
2023-06-11T00:22:49.331Z,0.00
2023-06-11T00:23:20.210Z,0.00
2023-06-11T00:23:51.205Z,0.00
2023-06-11T00:24:21.784Z,0.00
2023-06-11T00:24:52.214Z,0.00
2023-06-11T00:25:23.143Z,0.00
2023-06-11T00:25:54.113Z,0.00
2023-06-11T00:26:25.010Z,0.00
2023-06-11T00:26:55.923Z,0.00
2023-06-11T00:27:25.423Z,0.00
2023-06-11T00:27:57.316Z,0.00
2023-06-11T00:28:28.231Z,0.00
2023-06-11T00:28:59.137Z,0.00
2023-06-11T00:29:30.074Z,0.00
2023-06-11T00:30:00.985Z,0.00
2023-06-11T00:30:31.967Z,0.00
2023-06-11T00:31:02.443Z,0.00
2023-06-11T00:31:33.427Z,0.00
2023-06-11T00:32:03.934Z,0.00
2023-06-11T00:32:34.438Z,0.00
2023-06-11T00:33:04.025Z,0.00
2023-06-11T00:33:35.509Z,0.00
2023-06-11T00:34:06.450Z,0.00
2023-06-11T00:34:37.378Z,0.00
2023-06-11T00:35:08.995Z,0.00
2023-06-11T00:35:39.181Z,0.00
2023-06-11T00:36:10.118Z,0.00
2023-06-11T00:36:41.028Z,0.00
2023-06-11T00:37:11.951Z,0.00
2023-06-11T00:37:42.854Z,0.00
2023-06-11T00:38:13.775Z,0.00
2023-06-11T00:38:44.696Z,0.00
2023-06-11T00:39:15.592Z,0.00
2023-06-11T00:39:46.524Z,0.00
2023-06-11T00:40:17.456Z,0.00
2023-06-11T00:40:48.415Z,0.00
2023-06-11T00:41:19.313Z,0.00
2023-06-11T00:41:50.273Z,0.00
2023-06-11T00:42:21.025Z,0.00
2023-06-11T00:42:50.522Z,0.00
2023-06-11T00:43:22.372Z,0.00
2023-06-11T00:43:53.327Z,0.00
2023-06-11T00:44:23.815Z,0.00
2023-06-11T00:44:54.621Z,0.00
2023-06-11T00:45:25.586Z,0.00
2023-06-11T00:45:55.161Z,0.00
2023-06-11T00:46:27.190Z,0.00
2023-06-11T00:46:57.626Z,0.00
2023-06-11T00:47:28.538Z,0.00
2023-06-11T00:47:58.114Z,0.00
2023-06-11T00:48:30.036Z,0.00
2023-06-11T00:49:00.943Z,0.00
2023-06-11T00:49:31.904Z,0.00
2023-06-11T00:50:02.865Z,0.00
2023-06-11T00:50:33.777Z,0.00
2023-06-11T00:51:04.720Z,0.00
2023-06-11T00:51:35.664Z,0.00
2023-06-11T00:52:06.571Z,0.00
2023-06-11T00:52:37.487Z,0.00
2023-06-11T00:53:08.410Z,0.00
2023-06-11T00:53:39.352Z,0.00
2023-06-11T00:54:10.263Z,0.00
2023-06-11T00:54:41.178Z,0.00
2023-06-11T00:55:12.325Z,0.00
2023-06-11T00:55:43.001Z,0.00
2023-06-11T00:56:13.894Z,0.00
2023-06-11T00:56:44.832Z,0.00
2023-06-11T00:57:15.720Z,0.00
2023-06-11T00:57:46.618Z,0.00
2023-06-11T00:58:17.556Z,0.00
2023-06-11T00:58:48.526Z,0.00
2023-06-11T00:59:19.005Z,0.00
2023-06-11T00:59:49.961Z,0.00
2023-06-11T01:00:20.900Z,0.00
2023-06-11T01:00:51.897Z,0.00
2023-06-11T01:01:22.862Z,0.00
2023-06-11T01:01:53.789Z,0.00
2023-06-11T01:02:24.603Z,0.00
2023-06-11T01:02:55.553Z,0.00
2023-06-11T01:03:26.459Z,0.00
2023-06-11T01:03:57.392Z,0.00
2023-06-11T01:04:28.465Z,0.00
2023-06-11T01:04:59.182Z,0.00
2023-06-11T01:05:29.912Z,0.00
2023-06-11T01:06:01.554Z,0.00
2023-06-11T01:06:31.263Z,0.00
2023-06-11T01:07:02.164Z,0.00
2023-06-11T01:07:33.107Z,0.00
2023-06-11T01:08:04.039Z,0.00
2023-06-11T01:08:34.957Z,0.00
2023-06-11T01:09:05.894Z,0.00
2023-06-11T01:09:36.845Z,0.00
2023-06-11T01:10:07.794Z,0.00
2023-06-11T01:10:38.681Z,0.00
2023-06-11T01:11:11.222Z,0.00
2023-06-11T01:11:40.238Z,0.00
2023-06-11T01:12:11.158Z,0.00
2023-06-11T01:12:42.078Z,0.00
2023-06-11T01:13:15.004Z,0.00
2023-06-11T01:13:42.863Z,0.00
2023-06-11T01:14:14.777Z,0.00
2023-06-11T01:14:45.684Z,0.00
2023-06-11T01:15:16.658Z,0.00
2023-06-11T01:15:47.559Z,0.00
2023-06-11T01:16:18.477Z,0.00
2023-06-11T01:16:49.119Z,0.00
2023-06-11T01:17:19.665Z,0.00
2023-06-11T01:17:49.275Z,0.00
2023-06-11T01:18:21.209Z,0.00
2023-06-11T01:18:52.135Z,0.00
2023-06-11T01:19:23.069Z,0.00
2023-06-11T01:19:54.004Z,0.00
2023-06-11T01:20:24.956Z,0.00
2023-06-11T01:20:55.761Z,0.00
2023-06-11T01:21:25.319Z,0.00
2023-06-11T01:21:57.235Z,0.00
2023-06-11T01:22:28.158Z,0.00
2023-06-11T01:22:59.075Z,0.00
2023-06-11T01:23:28.611Z,0.00
2023-06-11T01:24:00.528Z,0.00
2023-06-11T01:24:31.014Z,0.00
2023-06-11T01:25:01.914Z,0.00
2023-06-11T01:25:31.910Z,0.00
2023-06-11T01:26:03.842Z,0.00
2023-06-11T01:26:34.723Z,0.00
2023-06-11T01:27:05.622Z,0.00
2023-06-11T01:27:36.564Z,0.00
2023-06-11T01:28:07.467Z,0.00
2023-06-11T01:28:36.996Z,0.00
2023-06-11T01:29:08.946Z,0.00
2023-06-11T01:29:39.907Z,0.00
2023-06-11T01:30:10.817Z,0.00
2023-06-11T01:30:41.767Z,0.00
2023-06-11T01:31:12.731Z,0.00
2023-06-11T01:31:43.927Z,0.00
2023-06-11T01:32:14.445Z,0.00
2023-06-11T01:32:45.400Z,0.00
2023-06-11T01:33:16.354Z,0.00
2023-06-11T01:33:47.256Z,0.00
2023-06-11T01:34:18.175Z,0.00
2023-06-11T01:34:49.097Z,0.00
2023-06-11T01:35:20.045Z,0.00
2023-06-11T01:35:50.964Z,0.00
2023-06-11T01:36:21.895Z,0.00
2023-06-11T01:36:52.796Z,0.00
2023-06-11T01:37:23.683Z,0.00
2023-06-11T01:37:54.591Z,0.00
2023-06-11T01:38:25.532Z,0.00
2023-06-11T01:38:56.440Z,0.00
2023-06-11T01:39:27.361Z,0.00
2023-06-11T01:39:58.266Z,0.00
2023-06-11T01:40:29.194Z,0.00
2023-06-11T01:41:00.164Z,0.00
2023-06-11T01:41:30.626Z,0.00
2023-06-11T01:42:01.437Z,0.00
2023-06-11T01:42:32.412Z,0.00
2023-06-11T01:43:03.330Z,0.00
2023-06-11T01:43:34.267Z,0.00
2023-06-11T01:44:05.187Z,0.00
2023-06-11T01:44:34.834Z,0.00
2023-06-11T01:45:06.797Z,0.00
2023-06-11T01:45:37.747Z,0.00
2023-06-11T01:46:08.812Z,0.00
2023-06-11T01:46:39.318Z,0.00
2023-06-11T01:47:08.985Z,0.00
2023-06-11T01:47:40.900Z,0.00
2023-06-11T01:48:11.808Z,0.00
2023-06-11T01:48:42.638Z,0.00
2023-06-11T01:49:13.541Z,0.00
2023-06-11T01:49:44.444Z,0.00
2023-06-11T01:50:15.345Z,0.00
2023-06-11T01:50:46.259Z,0.00
2023-06-11T01:51:17.218Z,0.00
2023-06-11T01:51:48.130Z,0.00
2023-06-11T01:52:19.043Z,0.00
2023-06-11T01:52:49.950Z,0.00
2023-06-11T01:53:20.848Z,0.00
2023-06-11T01:53:51.772Z,0.00
2023-06-11T01:54:22.663Z,0.00
2023-06-11T01:54:53.569Z,0.00
2023-06-11T01:55:24.504Z,0.00
2023-06-11T01:55:55.355Z,0.00
2023-06-11T01:56:26.301Z,0.00
2023-06-11T01:56:57.200Z,0.00
2023-06-11T01:57:26.718Z,0.00
2023-06-11T01:57:58.706Z,0.00
2023-06-11T01:58:29.688Z,0.00
2023-06-11T01:59:00.629Z,0.00
2023-06-11T01:59:31.537Z,0.00
2023-06-11T02:00:02.476Z,0.00
2023-06-11T02:00:33.406Z,0.00
2023-06-11T02:01:04.330Z,0.00
2023-06-11T02:01:35.328Z,0.00
2023-06-11T02:02:06.340Z,0.00
2023-06-11T02:02:36.938Z,0.00
2023-06-11T02:03:07.477Z,0.00
2023-06-11T02:03:38.006Z,0.00
2023-06-11T02:04:08.583Z,0.00
2023-06-11T02:04:39.014Z,0.00
2023-06-11T02:05:10.329Z,0.00
2023-06-11T02:05:40.504Z,0.00
2023-06-11T02:06:11.423Z,0.00
2023-06-11T02:06:42.309Z,0.00
2023-06-11T02:07:13.274Z,0.00
2023-06-11T02:07:44.173Z,0.00
2023-06-11T02:08:15.063Z,0.00
2023-06-11T02:08:45.958Z,0.00
2023-06-11T02:09:16.924Z,0.00
2023-06-11T02:09:47.823Z,0.00
2023-06-11T02:10:18.899Z,0.00
2023-06-11T02:10:49.346Z,0.00
2023-06-11T02:11:20.275Z,0.00
2023-06-11T02:11:51.164Z,0.00
2023-06-11T02:12:22.079Z,0.00
2023-06-11T02:12:52.993Z,0.00
2023-06-11T02:13:23.798Z,0.00
2023-06-11T02:13:54.696Z,0.00
2023-06-11T02:14:25.600Z,0.00
2023-06-11T02:14:56.406Z,0.00
2023-06-11T02:15:27.326Z,0.00
2023-06-11T02:15:58.210Z,0.00
2023-06-11T02:16:28.724Z,0.00
2023-06-11T02:16:59.174Z,0.00
2023-06-11T02:17:30.152Z,0.00
2023-06-11T02:18:01.202Z,0.00
2023-06-11T02:18:31.643Z,0.00
2023-06-11T02:19:02.572Z,0.00
2023-06-11T02:19:33.492Z,0.00
2023-06-11T02:20:04.409Z,0.00
2023-06-11T02:20:35.319Z,0.00
2023-06-11T02:21:06.218Z,0.00
2023-06-11T02:21:37.138Z,0.00
2023-06-11T02:22:08.071Z,0.00
2023-06-11T02:22:38.959Z,0.00
2023-06-11T02:23:09.894Z,0.00
2023-06-11T02:23:40.929Z,0.00
2023-06-11T02:24:11.354Z,0.00
2023-06-11T02:24:41.842Z,0.00
2023-06-11T02:25:13.152Z,0.00
2023-06-11T02:25:43.311Z,0.00
2023-06-11T02:26:14.255Z,0.00
2023-06-11T02:26:45.199Z,0.00
2023-06-11T02:27:16.129Z,0.00
2023-06-11T02:27:47.084Z,0.00
2023-06-11T02:28:18.019Z,0.00
2023-06-11T02:28:48.838Z,0.00
2023-06-11T02:29:19.759Z,0.00
2023-06-11T02:29:50.651Z,0.00
2023-06-11T02:30:24.192Z,0.00
2023-06-11T02:30:52.381Z,0.00
2023-06-11T02:31:23.338Z,0.00
2023-06-11T02:31:54.358Z,0.00
2023-06-11T02:32:24.793Z,0.00
2023-06-11T02:32:55.751Z,0.00
2023-06-11T02:33:26.684Z,0.00
2023-06-11T02:33:57.584Z,0.00
2023-06-11T02:34:28.497Z,0.00
2023-06-11T02:34:59.438Z,0.00
2023-06-11T02:35:30.347Z,0.00
2023-06-11T02:36:01.323Z,0.00
2023-06-11T02:36:32.233Z,0.00
2023-06-11T02:37:03.164Z,0.00
2023-06-11T02:37:34.098Z,0.00
2023-06-11T02:38:05.038Z,0.00
2023-06-11T02:38:35.966Z,0.00
2023-06-11T02:39:06.948Z,0.00
2023-06-11T02:39:37.896Z,0.00
2023-06-11T02:40:07.771Z,0.00
2023-06-11T02:40:39.691Z,0.00
2023-06-11T02:41:10.626Z,0.00
2023-06-11T02:41:41.597Z,0.00
2023-06-11T02:42:12.486Z,0.00
2023-06-11T02:42:43.401Z,0.00
2023-06-11T02:43:14.288Z,0.00
2023-06-11T02:43:43.869Z,1.00
2023-06-11T02:44:15.821Z,0.00
2023-06-11T02:44:46.358Z,0.00
2023-06-11T02:45:17.257Z,0.00
2023-06-11T02:45:48.268Z,0.00
2023-06-11T02:46:19.243Z,0.00
2023-06-11T02:46:50.176Z,0.00
2023-06-11T02:47:21.153Z,1.00
2023-06-11T02:47:52.052Z,1.00
2023-06-11T02:48:22.963Z,1.00
2023-06-11T02:48:53.842Z,1.00
2023-06-11T02:49:24.744Z,0.00
2023-06-11T02:49:55.692Z,0.00
2023-06-11T02:50:26.604Z,0.00
2023-06-11T02:50:57.519Z,0.00
2023-06-11T02:51:28.459Z,0.00
2023-06-11T02:51:59.349Z,0.00
2023-06-11T02:52:30.231Z,0.00
2023-06-11T02:53:01.100Z,2.00
2023-06-11T02:53:31.987Z,2.00
2023-06-11T02:54:02.859Z,1.00
2023-06-11T02:54:33.793Z,0.00
2023-06-11T02:55:04.663Z,1.00
2023-06-11T02:55:35.535Z,1.00
2023-06-11T02:56:06.393Z,1.00
2023-06-11T02:56:37.346Z,0.00
2023-06-11T02:57:08.250Z,0.00
2023-06-11T02:57:39.106Z,0.00
2023-06-11T02:58:09.966Z,2.00
2023-06-11T02:58:40.867Z,1.00
2023-06-11T02:59:11.721Z,1.00
2023-06-11T02:59:42.618Z,1.00
2023-06-11T03:00:13.465Z,1.00
2023-06-11T03:00:44.571Z,1.00
2023-06-11T03:01:14.962Z,1.00
2023-06-11T03:01:45.960Z,4.00
2023-06-11T03:02:16.322Z,4.00
2023-06-11T03:02:47.282Z,4.00
2023-06-11T03:03:18.193Z,4.00
2023-06-11T03:03:49.087Z,5.00
2023-06-11T03:04:20.055Z,3.00
2023-06-11T03:04:50.923Z,5.00
2023-06-11T03:05:21.790Z,5.00
2023-06-11T03:05:52.661Z,5.00
2023-06-11T03:06:23.521Z,5.00
2023-06-11T03:06:54.364Z,2.00
2023-06-11T03:07:25.250Z,3.00
2023-06-11T03:07:56.098Z,5.00
2023-06-11T03:08:26.992Z,7.00
2023-06-11T03:08:57.844Z,6.00
2023-06-11T03:09:28.728Z,6.00
2023-06-11T03:09:59.568Z,7.00
2023-06-11T03:10:30.351Z,9.00
2023-06-11T03:11:01.132Z,6.00
2023-06-11T03:11:32.004Z,4.00
2023-06-11T03:12:02.850Z,5.00
2023-06-11T03:12:33.715Z,5.00
2023-06-11T03:13:04.651Z,7.00
2023-06-11T03:13:35.558Z,9.00
2023-06-11T03:14:06.485Z,11.00
2023-06-11T03:14:37.362Z,10.00
2023-06-11T03:15:08.319Z,10.00
2023-06-11T03:15:38.888Z,11.00
2023-06-11T03:16:08.464Z,14.00
2023-06-11T03:16:40.419Z,10.00
2023-06-11T03:17:10.823Z,8.00
2023-06-11T03:17:41.683Z,10.00
2023-06-11T03:18:12.614Z,11.00
2023-06-11T03:18:42.604Z,11.00
2023-06-11T03:19:14.472Z,14.00
2023-06-11T03:19:45.383Z,14.00
2023-06-11T03:20:16.103Z,18.00
2023-06-11T03:20:46.957Z,19.00
2023-06-11T03:21:17.836Z,18.00
2023-06-11T03:21:48.713Z,17.00
2023-06-11T03:22:19.611Z,18.00
2023-06-11T03:22:50.467Z,15.00
2023-06-11T03:23:21.312Z,15.00
2023-06-11T03:23:52.201Z,13.00
2023-06-11T03:24:23.115Z,19.00
2023-06-11T03:24:53.992Z,21.00
2023-06-11T03:25:24.866Z,22.00
2023-06-11T03:25:55.775Z,23.00
2023-06-11T03:26:25.361Z,22.00
2023-06-11T03:26:57.307Z,23.00
2023-06-11T03:27:26.892Z,26.00
2023-06-11T03:27:58.768Z,25.00
2023-06-11T03:28:29.545Z,24.00
2023-06-11T03:29:00.415Z,28.00
2023-06-11T03:29:31.284Z,28.00
2023-06-11T03:30:02.143Z,31.00
2023-06-11T03:30:33.019Z,34.00
2023-06-11T03:31:03.810Z,32.00
2023-06-11T03:31:33.455Z,29.00
2023-06-11T03:32:05.353Z,30.00
2023-06-11T03:32:36.292Z,34.00
2023-06-11T03:33:07.192Z,37.00
2023-06-11T03:33:38.107Z,35.00
2023-06-11T03:34:08.943Z,35.00
2023-06-11T03:34:39.771Z,36.00
2023-06-11T03:35:11.019Z,40.00
2023-06-11T03:35:41.376Z,41.00
2023-06-11T03:36:12.256Z,41.00
2023-06-11T03:36:43.151Z,40.00
2023-06-11T03:37:14.016Z,42.00
2023-06-11T03:37:44.913Z,45.00
2023-06-11T03:38:14.488Z,45.00
2023-06-11T03:38:46.361Z,45.00
2023-06-11T03:39:17.245Z,48.00
2023-06-11T03:39:48.078Z,47.00
2023-06-11T03:40:18.835Z,48.00
2023-06-11T03:40:49.687Z,49.00
2023-06-11T03:41:20.528Z,53.00
2023-06-11T03:41:51.451Z,55.00
2023-06-11T03:42:22.285Z,56.00
2023-06-11T03:42:53.147Z,57.00
2023-06-11T03:43:24.025Z,56.00
2023-06-11T03:43:54.766Z,58.00
2023-06-11T03:44:25.619Z,59.00
2023-06-11T03:44:56.543Z,61.00
2023-06-11T03:45:27.374Z,63.00
2023-06-11T03:45:58.228Z,66.00
2023-06-11T03:46:29.210Z,67.00
2023-06-11T03:47:00.118Z,68.00
2023-06-11T03:47:30.837Z,70.00
2023-06-11T03:48:01.754Z,70.00
2023-06-11T03:48:31.354Z,68.00
2023-06-11T03:49:03.219Z,68.00
2023-06-11T03:49:34.066Z,71.00
2023-06-11T03:50:04.905Z,73.00
2023-06-11T03:50:35.798Z,76.00
2023-06-11T03:51:06.643Z,76.00
2023-06-11T03:51:37.541Z,78.00
2023-06-11T03:52:08.424Z,81.00
2023-06-11T03:52:39.302Z,83.00
2023-06-11T03:53:09.285Z,84.00
2023-06-11T03:53:41.161Z,85.00
2023-06-11T03:54:12.080Z,87.00
2023-06-11T03:54:42.940Z,89.00
2023-06-11T03:55:13.870Z,91.00
2023-06-11T03:55:44.803Z,90.00
2023-06-11T03:56:15.669Z,92.00
2023-06-11T03:56:46.543Z,91.00
2023-06-11T03:57:17.387Z,95.00
2023-06-11T03:57:48.273Z,98.00
2023-06-11T03:58:18.292Z,96.00
2023-06-11T03:58:50.167Z,97.00
2023-06-11T03:59:21.042Z,98.00
2023-06-11T03:59:51.034Z,100.00
2023-06-11T04:00:22.912Z,101.00
2023-06-11T04:00:53.816Z,104.00
2023-06-11T04:01:24.678Z,106.00
2023-06-11T04:01:55.533Z,105.00
2023-06-11T04:02:26.533Z,106.00
2023-06-11T04:02:58.824Z,106.00
2023-06-11T04:03:27.906Z,112.00
2023-06-11T04:03:58.396Z,110.00
2023-06-11T04:04:29.391Z,111.00
2023-06-11T04:05:00.247Z,114.00
2023-06-11T04:05:31.115Z,114.00
2023-06-11T04:06:02.001Z,114.00
2023-06-11T04:06:31.807Z,120.00
2023-06-11T04:07:04.434Z,118.00
2023-06-11T04:07:34.327Z,119.00
2023-06-11T04:08:05.177Z,120.00
2023-06-11T04:08:36.038Z,121.00
2023-06-11T04:09:06.909Z,122.00
2023-06-11T04:09:37.779Z,124.00
2023-06-11T04:10:08.829Z,124.00
2023-06-11T04:10:39.301Z,124.00
2023-06-11T04:11:10.153Z,128.00
2023-06-11T04:11:41.032Z,129.00
2023-06-11T04:12:11.886Z,131.00
2023-06-11T04:12:42.645Z,134.00
2023-06-11T04:13:12.184Z,136.00
2023-06-11T04:13:44.031Z,135.00
2023-06-11T04:14:14.902Z,137.00
2023-06-11T04:14:45.774Z,138.00
2023-06-11T04:15:16.624Z,137.00
2023-06-11T04:15:47.501Z,138.00
2023-06-11T04:16:18.328Z,141.00
2023-06-11T04:16:49.258Z,140.00
2023-06-11T04:17:21.210Z,143.00
2023-06-11T04:17:50.817Z,143.00
2023-06-11T04:18:21.717Z,142.00
2023-06-11T04:18:52.230Z,147.00
2023-06-11T04:19:23.099Z,145.00
2023-06-11T04:19:53.979Z,148.00
2023-06-11T04:20:24.852Z,147.00
2023-06-11T04:20:55.717Z,146.00
2023-06-11T04:21:26.585Z,152.00
2023-06-11T04:21:57.420Z,153.00
2023-06-11T04:22:28.348Z,151.00
2023-06-11T04:22:59.186Z,152.00
2023-06-11T04:23:30.072Z,152.00
2023-06-11T04:24:00.958Z,151.00
2023-06-11T04:24:31.857Z,155.00
2023-06-11T04:25:01.507Z,158.00
2023-06-11T04:25:33.353Z,160.00
2023-06-11T04:26:04.217Z,159.00
2023-06-11T04:26:35.120Z,160.00
2023-06-11T04:27:05.969Z,161.00
2023-06-11T04:27:36.851Z,166.00
2023-06-11T04:28:07.716Z,166.00
2023-06-11T04:28:38.569Z,167.00
2023-06-11T04:29:09.437Z,166.00
2023-06-11T04:29:40.297Z,167.00
2023-06-11T04:30:10.323Z,169.00
2023-06-11T04:30:42.178Z,169.00
2023-06-11T04:31:13.149Z,168.00
2023-06-11T04:31:43.651Z,171.00
2023-06-11T04:32:14.497Z,173.00
2023-06-11T04:32:45.387Z,172.00
2023-06-11T04:33:15.215Z,174.00
2023-06-11T04:33:47.113Z,170.00
2023-06-11T04:34:18.015Z,173.00
2023-06-11T04:34:48.897Z,172.00
2023-06-11T04:35:19.927Z,172.00
2023-06-11T04:35:50.436Z,171.00
2023-06-11T04:36:19.970Z,172.00
2023-06-11T04:36:51.819Z,175.00
2023-06-11T04:37:22.665Z,176.00
2023-06-11T04:37:53.526Z,179.00
2023-06-11T04:38:24.363Z,181.00
2023-06-11T04:38:55.247Z,182.00
2023-06-11T04:39:26.124Z,183.00
2023-06-11T04:39:56.999Z,183.00
2023-06-11T04:40:27.855Z,184.00
2023-06-11T04:40:58.719Z,187.00
2023-06-11T04:41:29.578Z,184.00
2023-06-11T04:42:00.409Z,186.00
2023-06-11T04:42:33.092Z,186.00
2023-06-11T04:43:01.789Z,183.00
2023-06-11T04:43:32.650Z,190.00
2023-06-11T04:44:03.536Z,187.00
2023-06-11T04:44:34.407Z,186.00
2023-06-11T04:45:05.186Z,186.00
2023-06-11T04:45:36.039Z,188.00
2023-06-11T04:46:06.964Z,190.00
2023-06-11T04:46:37.858Z,191.00
2023-06-11T04:47:08.760Z,192.00
2023-06-11T04:47:39.642Z,193.00
2023-06-11T04:48:10.533Z,193.00
2023-06-11T04:48:41.401Z,192.00
2023-06-11T04:49:12.254Z,193.00
2023-06-11T04:49:43.110Z,192.00
2023-06-11T04:50:14.036Z,195.00
2023-06-11T04:50:43.848Z,196.00
2023-06-11T04:51:15.710Z,198.00
2023-06-11T04:51:46.585Z,196.00
2023-06-11T04:52:17.450Z,198.00
2023-06-11T04:52:46.997Z,195.00
2023-06-11T04:53:17.570Z,198.00
2023-06-11T04:53:49.315Z,200.00
2023-06-11T04:54:20.165Z,197.00
2023-06-11T04:54:51.015Z,199.00
2023-06-11T04:55:21.910Z,198.00
2023-06-11T04:55:52.823Z,201.00
2023-06-11T04:56:23.672Z,200.00
2023-06-11T04:56:54.543Z,198.00
2023-06-11T04:57:25.404Z,198.00
2023-06-11T04:57:56.606Z,199.00
2023-06-11T04:58:27.037Z,203.00
2023-06-11T04:58:57.949Z,204.00
2023-06-11T04:59:28.701Z,206.00
2023-06-11T04:59:59.539Z,202.00
2023-06-11T05:00:30.425Z,207.00
2023-06-11T05:01:01.309Z,207.00
2023-06-11T05:01:32.241Z,208.00
2023-06-11T05:02:03.152Z,207.00
2023-06-11T05:02:34.087Z,210.00
2023-06-11T05:03:04.966Z,211.00
2023-06-11T05:03:35.885Z,209.00
2023-06-11T05:04:06.661Z,208.00
2023-06-11T05:04:37.402Z,208.00
2023-06-11T05:05:08.369Z,206.00
2023-06-11T05:05:38.873Z,211.00
2023-06-11T05:06:09.790Z,210.00
2023-06-11T05:06:40.688Z,212.00
2023-06-11T05:07:11.605Z,213.00
2023-06-11T05:07:42.507Z,213.00
2023-06-11T05:08:13.354Z,216.00
2023-06-11T05:08:44.268Z,217.00
2023-06-11T05:09:15.123Z,215.00
2023-06-11T05:09:46.265Z,214.00
2023-06-11T05:10:16.744Z,216.00
2023-06-11T05:10:47.476Z,210.00
2023-06-11T05:11:18.344Z,211.00
2023-06-11T05:11:49.202Z,210.00
2023-06-11T05:12:20.105Z,212.00
2023-06-11T05:12:50.958Z,210.00
2023-06-11T05:13:21.804Z,217.00
2023-06-11T05:13:52.661Z,212.00
2023-06-11T05:14:22.239Z,218.00
2023-06-11T05:14:54.083Z,209.00
2023-06-11T05:15:25.036Z,211.00
2023-06-11T05:15:55.911Z,215.00
2023-06-11T05:16:25.921Z,213.00
2023-06-11T05:16:57.901Z,212.00
2023-06-11T05:17:28.850Z,215.00
2023-06-11T05:17:59.747Z,216.00
2023-06-11T05:18:30.617Z,213.00
2023-06-11T05:19:01.473Z,214.00
2023-06-11T05:19:31.269Z,219.00
2023-06-11T05:20:03.141Z,218.00
2023-06-11T05:20:33.997Z,220.00
2023-06-11T05:21:05.908Z,218.00
2023-06-11T05:21:34.404Z,220.00
2023-06-11T05:22:06.275Z,216.00
2023-06-11T05:22:38.487Z,224.00
2023-06-11T05:23:06.966Z,223.00
2023-06-11T05:23:38.835Z,232.00
2023-06-11T05:24:09.700Z,229.00
2023-06-11T05:24:40.624Z,224.00
2023-06-11T05:25:11.794Z,222.00
2023-06-11T05:25:42.385Z,228.00
2023-06-11T05:26:13.307Z,227.00
2023-06-11T05:26:44.217Z,225.00
2023-06-11T05:27:15.101Z,233.00
2023-06-11T05:27:45.955Z,234.00
2023-06-11T05:28:16.811Z,227.00
2023-06-11T05:28:47.663Z,229.00
2023-06-11T05:29:18.523Z,227.00
2023-06-11T05:29:49.435Z,230.00
2023-06-11T05:30:20.280Z,232.00
2023-06-11T05:30:51.143Z,233.00
2023-06-11T05:31:21.722Z,237.00
2023-06-11T05:31:52.655Z,234.00
2023-06-11T05:32:23.623Z,236.00
2023-06-11T05:32:54.511Z,230.00
2023-06-11T05:33:24.973Z,236.00
2023-06-11T05:33:55.840Z,237.00
2023-06-11T05:34:26.695Z,236.00
2023-06-11T05:34:57.563Z,236.00
2023-06-11T05:35:28.465Z,233.00
2023-06-11T05:35:59.319Z,241.00
2023-06-11T05:36:30.158Z,235.00
2023-06-11T05:37:01.045Z,244.00
2023-06-11T05:37:31.927Z,244.00
2023-06-11T05:38:02.767Z,244.00
2023-06-11T05:38:33.635Z,240.00
2023-06-11T05:39:04.494Z,239.00
2023-06-11T05:39:35.355Z,246.00
2023-06-11T05:40:06.246Z,242.00
2023-06-11T05:40:37.105Z,242.00
2023-06-11T05:41:07.997Z,242.00
2023-06-11T05:41:38.881Z,238.00
2023-06-11T05:42:08.454Z,243.00
2023-06-11T05:42:40.369Z,241.00
2023-06-11T05:43:11.238Z,239.00
2023-06-11T05:43:42.104Z,240.00
2023-06-11T05:44:12.944Z,244.00
2023-06-11T05:44:43.818Z,241.00
2023-06-11T05:45:14.806Z,253.00
2023-06-11T05:45:45.279Z,246.00
2023-06-11T05:46:16.233Z,241.00
2023-06-11T05:46:47.168Z,243.00
2023-06-11T05:47:18.152Z,243.00
2023-06-11T05:47:49.139Z,242.00
2023-06-11T05:48:19.742Z,246.00
2023-06-11T05:48:50.205Z,253.00
2023-06-11T05:49:21.080Z,247.00
2023-06-11T05:49:51.941Z,249.00
2023-06-11T05:50:22.784Z,248.00
2023-06-11T05:50:53.640Z,248.00
2023-06-11T05:51:24.490Z,247.00
2023-06-11T05:51:55.322Z,249.00
2023-06-11T05:52:25.299Z,252.00
2023-06-11T05:52:57.979Z,250.00
2023-06-11T05:53:27.836Z,255.00
2023-06-11T05:53:58.801Z,251.00
2023-06-11T05:54:29.667Z,247.00
2023-06-11T05:55:00.534Z,249.00
2023-06-11T05:55:30.512Z,253.00
2023-06-11T05:56:01.503Z,249.00
2023-06-11T05:56:33.387Z,249.00
2023-06-11T05:57:04.247Z,247.00
2023-06-11T05:57:35.181Z,246.00
2023-06-11T05:58:06.032Z,251.00
2023-06-11T05:58:36.932Z,251.00
2023-06-11T05:59:07.765Z,250.00
2023-06-11T05:59:38.640Z,251.00
2023-06-11T06:00:09.500Z,251.00
2023-06-11T06:00:40.334Z,251.00
2023-06-11T06:01:11.231Z,248.00
2023-06-11T06:01:43.228Z,250.00
2023-06-11T06:02:12.004Z,256.00
2023-06-11T06:02:44.037Z,254.00
2023-06-11T06:03:14.528Z,252.00
2023-06-11T06:03:45.138Z,253.00
2023-06-11T06:04:15.765Z,258.00
2023-06-11T06:04:46.260Z,255.00
2023-06-11T06:05:17.105Z,255.00
2023-06-11T06:05:47.983Z,251.00
2023-06-11T06:06:18.818Z,257.00
2023-06-11T06:06:49.662Z,259.00
2023-06-11T06:07:20.512Z,257.00
2023-06-11T06:07:51.419Z,258.00
2023-06-11T06:08:22.253Z,250.00
2023-06-11T06:08:53.006Z,255.00
2023-06-11T06:09:23.895Z,256.00
2023-06-11T06:09:54.753Z,255.00
2023-06-11T06:10:25.622Z,257.00
2023-06-11T06:10:56.506Z,259.00
2023-06-11T06:11:27.344Z,256.00
2023-06-11T06:11:58.233Z,256.00
2023-06-11T06:12:29.116Z,256.00
2023-06-11T06:13:00.039Z,255.00
2023-06-11T06:13:30.904Z,257.00
2023-06-11T06:14:01.774Z,256.00
2023-06-11T06:14:32.691Z,255.00
2023-06-11T06:15:03.546Z,260.00
2023-06-11T06:15:34.441Z,258.00
2023-06-11T06:16:05.310Z,260.00
2023-06-11T06:16:35.369Z,252.00
2023-06-11T06:17:07.285Z,250.00
2023-06-11T06:17:38.255Z,258.00
2023-06-11T06:18:09.151Z,265.00
2023-06-11T06:18:39.996Z,261.00
2023-06-11T06:19:10.851Z,264.00
2023-06-11T06:19:41.697Z,257.00
2023-06-11T06:20:12.560Z,265.00
2023-06-11T06:20:43.405Z,260.00
2023-06-11T06:21:14.298Z,261.00
2023-06-11T06:21:45.170Z,259.00
2023-06-11T06:22:15.938Z,262.00
2023-06-11T06:22:46.788Z,257.00
2023-06-11T06:23:17.655Z,257.00
2023-06-11T06:23:48.543Z,263.00
2023-06-11T06:24:19.472Z,263.00
2023-06-11T06:24:49.934Z,259.00
2023-06-11T06:25:20.777Z,259.00
2023-06-11T06:25:51.655Z,255.00
2023-06-11T06:26:22.505Z,260.00
2023-06-11T06:26:53.399Z,259.00
2023-06-11T06:27:24.255Z,256.00
2023-06-11T06:27:55.056Z,264.00
2023-06-11T06:28:26.021Z,259.00
2023-06-11T06:28:56.867Z,263.00
2023-06-11T06:29:27.723Z,262.00
2023-06-11T06:29:58.588Z,254.00
2023-06-11T06:30:29.469Z,257.00
2023-06-11T06:31:00.241Z,265.00
2023-06-11T06:31:31.122Z,263.00
2023-06-11T06:32:02.091Z,261.00
2023-06-11T06:32:31.777Z,265.00
2023-06-11T06:33:03.764Z,263.00
2023-06-11T06:33:34.259Z,264.00
2023-06-11T06:34:05.151Z,263.00
2023-06-11T06:34:36.006Z,262.00
2023-06-11T06:35:05.980Z,262.00
2023-06-11T06:35:37.830Z,259.00
2023-06-11T06:36:08.686Z,268.00
2023-06-11T06:36:39.561Z,262.00
2023-06-11T06:37:10.430Z,260.00
2023-06-11T06:37:41.280Z,260.00
2023-06-11T06:38:12.128Z,267.00